sensor_id;sensor_type;location;lat;lon;timestamp;pressure;altitude;pressure_sealevel;temperature;humidity
22580;BME280;11456;47.030;15.396;2023-07-24T00:02:12;97306.81;;;21.43;100.00
22580;BME280;11456;47.030;15.396;2023-07-24T00:04:39;97302.66;;;21.52;100.00
22580;BME280;11456;47.030;15.396;2023-07-24T00:07:05;97308.00;;;21.47;100.00
22580;BME280;11456;47.030;15.396;2023-07-24T00:09:32;97317.34;;;21.57;100.00
22580;BME280;11456;47.030;15.396;2023-07-24T00:11:58;97317.19;;;21.52;100.00
22580;BME280;11456;47.030;15.396;2023-07-24T00:14:25;97319.63;;;21.60;100.00
22580;BME280;11456;47.030;15.396;2023-07-24T00:16:51;97305.63;;;21.69;100.00
22580;BME280;11456;47.030;15.396;2023-07-24T00:19:18;97304.47;;;21.58;100.00
22580;BME280;11456;47.030;15.396;2023-07-24T00:21:45;97301.63;;;21.35;100.00
22580;BME280;11456;47.030;15.396;2023-07-24T00:24:11;97303.53;;;21.34;100.00
22580;BME280;11456;47.030;15.396;2023-07-24T00:26:38;97310.00;;;21.22;100.00
22580;BME280;11456;47.030;15.396;2023-07-24T00:29:04;97311.28;;;21.55;100.00
22580;BME280;11456;47.030;15.396;2023-07-24T00:31:31;97312.50;;;21.23;100.00
22580;BME280;11456;47.030;15.396;2023-07-24T00:33:57;97313.56;;;21.22;100.00
22580;BME280;11456;47.030;15.396;2023-07-24T00:36:26;97307.31;;;21.33;100.00
22580;BME280;11456;47.030;15.396;2023-07-24T00:38:54;97312.16;;;21.13;100.00
22580;BME280;11456;47.030;15.396;2023-07-24T00:41:20;97310.16;;;21.02;100.00
22580;BME280;11456;47.030;15.396;2023-07-24T00:43:47;97306.34;;;20.85;100.00
22580;BME280;11456;47.030;15.396;2023-07-24T00:46:13;97316.31;;;20.79;100.00
22580;BME280;11456;47.030;15.396;2023-07-24T00:48:40;97311.97;;;20.90;100.00
22580;BME280;11456;47.030;15.396;2023-07-24T00:51:07;97304.13;;;20.75;100.00
22580;BME280;11456;47.030;15.396;2023-07-24T00:53:33;97300.66;;;20.86;100.00
22580;BME280;11456;47.030;15.396;2023-07-24T00:56:00;97304.97;;;20.75;100.00
22580;BME280;11456;47.030;15.396;2023-07-24T00:58:27;97304.47;;;20.85;100.00
22580;BME280;11456;47.030;15.396;2023-07-24T01:00:56;97298.84;;;20.80;100.00
22580;BME280;11456;47.030;15.396;2023-07-24T01:03:24;97301.03;;;20.90;100.00
22580;BME280;11456;47.030;15.396;2023-07-24T01:05:55;97303.91;;;20.95;100.00
22580;BME280;11456;47.030;15.396;2023-07-24T01:08:22;97298.16;;;20.85;100.00
22580;BME280;11456;47.030;15.396;2023-07-24T01:10:49;97300.72;;;20.79;100.00
22580;BME280;11456;47.030;15.396;2023-07-24T01:13:18;97302.13;;;20.64;100.00
22580;BME280;11456;47.030;15.396;2023-07-24T01:15:48;97298.28;;;20.71;100.00
22580;BME280;11456;47.030;15.396;2023-07-24T01:18:16;97292.81;;;20.71;100.00
22580;BME280;11456;47.030;15.396;2023-07-24T01:20:48;97287.25;;;20.78;100.00
22580;BME280;11456;47.030;15.396;2023-07-24T01:25:58;97285.03;;;20.68;100.00
22580;BME280;11456;47.030;15.396;2023-07-24T01:28:26;97277.84;;;20.74;100.00
22580;BME280;11456;47.030;15.396;2023-07-24T01:30:52;97284.16;;;20.93;100.00
22580;BME280;11456;47.030;15.396;2023-07-24T01:33:19;97273.59;;;20.96;100.00
22580;BME280;11456;47.030;15.396;2023-07-24T01:35:48;97273.91;;;20.63;100.00
22580;BME280;11456;47.030;15.396;2023-07-24T01:38:16;97272.25;;;20.62;100.00
22580;BME280;11456;47.030;15.396;2023-07-24T01:40:43;97263.44;;;20.60;100.00
22580;BME280;11456;47.030;15.396;2023-07-24T01:43:11;97266.00;;;20.55;100.00
22580;BME280;11456;47.030;15.396;2023-07-24T01:45:38;97263.56;;;20.47;100.00
22580;BME280;11456;47.030;15.396;2023-07-24T01:48:05;97269.63;;;20.49;100.00
22580;BME280;11456;47.030;15.396;2023-07-24T01:50:32;97264.84;;;20.45;100.00
22580;BME280;11456;47.030;15.396;2023-07-24T01:52:58;97264.81;;;20.20;100.00
22580;BME280;11456;47.030;15.396;2023-07-24T01:55:25;97262.88;;;20.27;100.00
22580;BME280;11456;47.030;15.396;2023-07-24T01:57:52;97267.50;;;20.26;100.00
22580;BME280;11456;47.030;15.396;2023-07-24T02:00:18;97264.66;;;20.15;100.00
22580;BME280;11456;47.030;15.396;2023-07-24T02:02:45;97258.91;;;20.91;100.00
22580;BME280;11456;47.030;15.396;2023-07-24T02:05:12;97260.28;;;20.32;100.00
22580;BME280;11456;47.030;15.396;2023-07-24T02:07:38;97274.22;;;19.99;100.00
22580;BME280;11456;47.030;15.396;2023-07-24T02:10:05;97268.88;;;20.11;100.00
22580;BME280;11456;47.030;15.396;2023-07-24T02:12:31;97264.03;;;20.13;100.00
22580;BME280;11456;47.030;15.396;2023-07-24T02:14:58;97264.28;;;20.36;100.00
22580;BME280;11456;47.030;15.396;2023-07-24T02:17:26;97268.53;;;20.00;100.00
22580;BME280;11456;47.030;15.396;2023-07-24T02:19:52;97262.09;;;19.88;100.00
22580;BME280;11456;47.030;15.396;2023-07-24T02:22:20;97260.00;;;19.90;100.00
22580;BME280;11456;47.030;15.396;2023-07-24T02:24:46;97266.97;;;19.80;100.00
22580;BME280;11456;47.030;15.396;2023-07-24T02:27:13;97265.63;;;19.95;100.00
22580;BME280;11456;47.030;15.396;2023-07-24T02:29:40;97255.75;;;19.63;100.00
22580;BME280;11456;47.030;15.396;2023-07-24T02:32:07;97269.50;;;19.81;100.00
22580;BME280;11456;47.030;15.396;2023-07-24T02:34:33;97258.16;;;19.84;100.00
22580;BME280;11456;47.030;15.396;2023-07-24T02:37:00;97257.03;;;20.17;100.00
22580;BME280;11456;47.030;15.396;2023-07-24T02:39:26;97261.84;;;19.96;100.00
22580;BME280;11456;47.030;15.396;2023-07-24T02:41:53;97255.13;;;19.92;100.00
22580;BME280;11456;47.030;15.396;2023-07-24T02:44:19;97255.91;;;19.68;100.00
22580;BME280;11456;47.030;15.396;2023-07-24T02:46:46;97256.25;;;19.78;100.00
22580;BME280;11456;47.030;15.396;2023-07-24T02:49:13;97256.47;;;19.83;100.00
22580;BME280;11456;47.030;15.396;2023-07-24T02:51:42;97258.56;;;19.81;100.00
22580;BME280;11456;47.030;15.396;2023-07-24T02:54:08;97252.84;;;19.58;100.00
22580;BME280;11456;47.030;15.396;2023-07-24T02:56:35;97251.50;;;19.67;100.00
22580;BME280;11456;47.030;15.396;2023-07-24T02:59:02;97242.97;;;19.88;100.00
22580;BME280;11456;47.030;15.396;2023-07-24T03:01:28;97235.13;;;19.67;100.00
22580;BME280;11456;47.030;15.396;2023-07-24T03:03:55;97229.34;;;19.82;100.00
22580;BME280;11456;47.030;15.396;2023-07-24T03:06:21;97229.13;;;19.83;100.00
22580;BME280;11456;47.030;15.396;2023-07-24T03:08:48;97240.16;;;19.70;100.00
22580;BME280;11456;47.030;15.396;2023-07-24T03:11:14;97237.97;;;19.47;100.00
22580;BME280;11456;47.030;15.396;2023-07-24T03:13:41;97240.22;;;19.57;100.00
22580;BME280;11456;47.030;15.396;2023-07-24T03:16:08;97231.25;;;19.81;100.00
22580;BME280;11456;47.030;15.396;2023-07-24T03:18:39;97222.09;;;19.69;100.00
22580;BME280;11456;47.030;15.396;2023-07-24T03:21:05;97223.75;;;19.70;100.00
22580;BME280;11456;47.030;15.396;2023-07-24T03:23:32;97222.09;;;19.69;100.00
22580;BME280;11456;47.030;15.396;2023-07-24T03:25:59;97214.25;;;19.35;100.00
22580;BME280;11456;47.030;15.396;2023-07-24T03:28:25;97210.22;;;19.44;100.00
22580;BME280;11456;47.030;15.396;2023-07-24T03:30:53;97212.75;;;19.52;100.00
22580;BME280;11456;47.030;15.396;2023-07-24T03:33:20;97212.78;;;19.39;100.00
22580;BME280;11456;47.030;15.396;2023-07-24T03:35:47;97216.13;;;19.41;100.00
22580;BME280;11456;47.030;15.396;2023-07-24T03:38:13;97216.19;;;19.28;100.00
22580;BME280;11456;47.030;15.396;2023-07-24T03:40:40;97212.97;;;19.44;100.00
22580;BME280;11456;47.030;15.396;2023-07-24T03:43:06;97219.31;;;19.38;100.00
22580;BME280;11456;47.030;15.396;2023-07-24T03:45:33;97210.44;;;19.49;100.00
22580;BME280;11456;47.030;15.396;2023-07-24T03:48:00;97219.69;;;19.48;100.00
22580;BME280;11456;47.030;15.396;2023-07-24T03:50:28;97213.38;;;19.41;100.00
22580;BME280;11456;47.030;15.396;2023-07-24T03:52:55;97221.38;;;19.42;100.00
22580;BME280;11456;47.030;15.396;2023-07-24T03:55:21;97216.81;;;19.30;100.00
22580;BME280;11456;47.030;15.396;2023-07-24T03:57:48;97212.63;;;19.27;100.00
22580;BME280;11456;47.030;15.396;2023-07-24T04:00:15;97210.94;;;19.33;100.00
22580;BME280;11456;47.030;15.396;2023-07-24T04:02:41;97210.44;;;19.42;100.00
22580;BME280;11456;47.030;15.396;2023-07-24T04:05:08;97206.69;;;19.37;100.00
22580;BME280;11456;47.030;15.396;2023-07-24T04:07:34;97201.63;;;19.47;100.00
22580;BME280;11456;47.030;15.396;2023-07-24T04:10:01;97195.28;;;19.53;100.00
22580;BME280;11456;47.030;15.396;2023-07-24T04:12:28;97203.66;;;19.58;100.00
22580;BME280;11456;47.030;15.396;2023-07-24T04:14:55;97206.66;;;19.50;100.00
22580;BME280;11456;47.030;15.396;2023-07-24T04:17:22;97200.31;;;19.56;100.00
22580;BME280;11456;47.030;15.396;2023-07-24T04:19:48;97202.19;;;19.87;100.00
22580;BME280;11456;47.030;15.396;2023-07-24T04:22:15;97206.22;;;19.84;100.00
22580;BME280;11456;47.030;15.396;2023-07-24T04:24:42;97213.78;;;19.82;100.00
22580;BME280;11456;47.030;15.396;2023-07-24T04:27:08;97211.28;;;20.06;100.00
22580;BME280;11456;47.030;15.396;2023-07-24T04:29:35;97206.50;;;20.26;100.00
22580;BME280;11456;47.030;15.396;2023-07-24T04:32:01;97197.66;;;20.24;100.00
22580;BME280;11456;47.030;15.396;2023-07-24T04:34:28;97207.31;;;20.33;100.00
22580;BME280;11456;47.030;15.396;2023-07-24T04:36:54;97208.97;;;20.34;100.00
22580;BME280;11456;47.030;15.396;2023-07-24T04:39:21;97212.66;;;20.46;100.00
22580;BME280;11456;47.030;15.396;2023-07-24T04:41:47;97205.94;;;20.42;100.00
22580;BME280;11456;47.030;15.396;2023-07-24T04:44:14;97206.75;;;20.67;100.00
22580;BME280;11456;47.030;15.396;2023-07-24T04:46:40;97207.06;;;20.77;100.00
22580;BME280;11456;47.030;15.396;2023-07-24T04:49:07;97200.03;;;21.00;100.00
22580;BME280;11456;47.030;15.396;2023-07-24T04:51:33;97200.66;;;21.02;100.00
22580;BME280;11456;47.030;15.396;2023-07-24T04:54:02;97204.25;;;21.20;100.00
22580;BME280;11456;47.030;15.396;2023-07-24T04:56:28;97204.47;;;21.37;100.00
22580;BME280;11456;47.030;15.396;2023-07-24T04:58:55;97194.88;;;21.58;100.00
22580;BME280;11456;47.030;15.396;2023-07-24T05:01:22;97201.47;;;21.69;100.00
22580;BME280;11456;47.030;15.396;2023-07-24T05:03:49;97206.50;;;21.83;100.00
22580;BME280;11456;47.030;15.396;2023-07-24T05:06:15;97202.22;;;21.76;100.00
22580;BME280;11456;47.030;15.396;2023-07-24T05:08:42;97211.50;;;21.75;100.00
22580;BME280;11456;47.030;15.396;2023-07-24T05:11:08;97217.47;;;21.83;100.00
22580;BME280;11456;47.030;15.396;2023-07-24T05:13:34;97218.75;;;22.11;100.00
22580;BME280;11456;47.030;15.396;2023-07-24T05:16:01;97209.75;;;22.33;100.00
22580;BME280;11456;47.030;15.396;2023-07-24T05:18:28;97219.66;;;22.46;100.00
22580;BME280;11456;47.030;15.396;2023-07-24T05:20:54;97222.75;;;22.61;100.00
22580;BME280;11456;47.030;15.396;2023-07-24T05:23:21;97222.91;;;22.78;100.00
22580;BME280;11456;47.030;15.396;2023-07-24T05:25:47;97212.75;;;22.90;100.00
22580;BME280;11456;47.030;15.396;2023-07-24T05:28:22;97206.25;;;23.08;100.00
22580;BME280;11456;47.030;15.396;2023-07-24T05:30:48;97191.31;;;23.15;100.00
22580;BME280;11456;47.030;15.396;2023-07-24T05:33:15;97179.81;;;23.18;100.00
22580;BME280;11456;47.030;15.396;2023-07-24T05:35:41;97175.00;;;23.26;100.00
22580;BME280;11456;47.030;15.396;2023-07-24T05:38:09;97163.19;;;23.25;100.00
22580;BME280;11456;47.030;15.396;2023-07-24T05:40:36;97171.84;;;23.74;100.00
22580;BME280;11456;47.030;15.396;2023-07-24T05:43:02;97182.00;;;23.73;100.00
22580;BME280;11456;47.030;15.396;2023-07-24T05:45:30;97172.63;;;24.03;100.00
22580;BME280;11456;47.030;15.396;2023-07-24T05:47:56;97165.19;;;24.03;100.00
22580;BME280;11456;47.030;15.396;2023-07-24T05:50:23;97174.22;;;23.98;100.00
22580;BME280;11456;47.030;15.396;2023-07-24T05:52:50;97185.19;;;23.82;100.00
22580;BME280;11456;47.030;15.396;2023-07-24T05:55:16;97174.75;;;24.29;100.00
22580;BME280;11456;47.030;15.396;2023-07-24T05:57:44;97179.00;;;24.92;94.17
22580;BME280;11456;47.030;15.396;2023-07-24T06:00:10;97181.88;;;24.63;91.24
22580;BME280;11456;47.030;15.396;2023-07-24T06:02:37;97177.72;;;23.94;97.19
22580;BME280;11456;47.030;15.396;2023-07-24T06:05:04;97171.25;;;23.55;100.00
22580;BME280;11456;47.030;15.396;2023-07-24T06:07:30;97168.66;;;23.65;100.00
22580;BME280;11456;47.030;15.396;2023-07-24T06:09:57;97167.69;;;23.88;100.00
22580;BME280;11456;47.030;15.396;2023-07-24T06:12:23;97165.16;;;23.53;100.00
22580;BME280;11456;47.030;15.396;2023-07-24T06:14:50;97161.50;;;23.64;100.00
22580;BME280;11456;47.030;15.396;2023-07-24T06:17:16;97171.31;;;23.60;100.00
22580;BME280;11456;47.030;15.396;2023-07-24T06:19:43;97184.53;;;23.75;100.00
22580;BME280;11456;47.030;15.396;2023-07-24T06:22:09;97182.22;;;24.17;100.00
22580;BME280;11456;47.030;15.396;2023-07-24T06:24:36;97176.88;;;23.93;100.00
22580;BME280;11456;47.030;15.396;2023-07-24T06:27:03;97174.06;;;24.22;100.00
22580;BME280;11456;47.030;15.396;2023-07-24T06:29:29;97167.56;;;24.28;100.00
22580;BME280;11456;47.030;15.396;2023-07-24T06:31:56;97169.56;;;24.49;99.98
22580;BME280;11456;47.030;15.396;2023-07-24T06:34:32;97169.81;;;24.86;98.48
22580;BME280;11456;47.030;15.396;2023-07-24T06:36:58;97169.28;;;25.06;96.32
22580;BME280;11456;47.030;15.396;2023-07-24T06:39:45;97164.13;;;25.36;94.33
22580;BME280;11456;47.030;15.396;2023-07-24T06:42:11;97163.63;;;25.93;93.39
22580;BME280;11456;47.030;15.396;2023-07-24T06:44:38;97165.53;;;25.61;91.14
22580;BME280;11456;47.030;15.396;2023-07-24T06:47:04;97159.38;;;25.80;92.84
22580;BME280;11456;47.030;15.396;2023-07-24T06:49:31;97158.00;;;26.42;88.79
22580;BME280;11456;47.030;15.396;2023-07-24T06:51:57;97159.72;;;26.48;87.34
22580;BME280;11456;47.030;15.396;2023-07-24T06:54:24;97142.69;;;26.61;86.42
22580;BME280;11456;47.030;15.396;2023-07-24T06:56:51;97145.81;;;26.80;84.77
22580;BME280;11456;47.030;15.396;2023-07-24T06:59:17;97150.44;;;27.21;82.18
22580;BME280;11456;47.030;15.396;2023-07-24T07:01:44;97139.53;;;26.89;82.72
22580;BME280;11456;47.030;15.396;2023-07-24T07:04:10;97133.13;;;27.46;80.60
22580;BME280;11456;47.030;15.396;2023-07-24T07:06:37;97126.56;;;27.72;78.80
22580;BME280;11456;47.030;15.396;2023-07-24T07:09:04;97129.88;;;27.74;77.44
22580;BME280;11456;47.030;15.396;2023-07-24T07:11:31;97139.28;;;27.68;76.57
22580;BME280;11456;47.030;15.396;2023-07-24T07:13:58;97139.56;;;27.67;78.24
22580;BME280;11456;47.030;15.396;2023-07-24T07:16:24;97130.47;;;27.81;75.11
22580;BME280;11456;47.030;15.396;2023-07-24T07:18:51;97129.25;;;27.47;78.58
22580;BME280;11456;47.030;15.396;2023-07-24T07:21:18;97122.50;;;28.15;74.30
22580;BME280;11456;47.030;15.396;2023-07-24T07:23:44;97121.03;;;27.57;76.71
22580;BME280;11456;47.030;15.396;2023-07-24T07:26:12;97116.78;;;27.34;78.18
22580;BME280;11456;47.030;15.396;2023-07-24T07:28:39;97119.28;;;27.41;75.95
22580;BME280;11456;47.030;15.396;2023-07-24T07:31:06;97105.13;;;27.22;78.89
22580;BME280;11456;47.030;15.396;2023-07-24T07:33:32;97106.34;;;27.62;75.94
22580;BME280;11456;47.030;15.396;2023-07-24T07:35:59;97113.22;;;27.44;74.97
22580;BME280;11456;47.030;15.396;2023-07-24T07:38:25;97106.50;;;27.20;76.81
22580;BME280;11456;47.030;15.396;2023-07-24T07:40:52;97100.31;;;28.00;74.37
22580;BME280;11456;47.030;15.396;2023-07-24T07:43:18;97104.16;;;28.50;71.22
22580;BME280;11456;47.030;15.396;2023-07-24T07:45:47;97096.72;;;28.25;72.03
22580;BME280;11456;47.030;15.396;2023-07-24T07:48:14;97087.03;;;28.22;74.06
22580;BME280;11456;47.030;15.396;2023-07-24T07:50:41;97083.09;;;29.28;67.78
22580;BME280;11456;47.030;15.396;2023-07-24T07:53:08;97083.72;;;29.15;67.01
22580;BME280;11456;47.030;15.396;2023-07-24T07:55:34;97074.78;;;29.33;69.76
22580;BME280;11456;47.030;15.396;2023-07-24T07:58:01;97072.47;;;30.23;62.61
22580;BME280;11456;47.030;15.396;2023-07-24T08:00:27;97067.50;;;30.20;61.93
22580;BME280;11456;47.030;15.396;2023-07-24T08:02:54;97063.75;;;30.06;62.08
22580;BME280;11456;47.030;15.396;2023-07-24T08:05:20;97063.44;;;30.89;61.20
22580;BME280;11456;47.030;15.396;2023-07-24T08:07:47;97055.47;;;30.01;62.33
22580;BME280;11456;47.030;15.396;2023-07-24T08:10:14;97054.25;;;30.12;65.13
22580;BME280;11456;47.030;15.396;2023-07-24T08:12:43;97037.31;;;29.75;64.87
22580;BME280;11456;47.030;15.396;2023-07-24T08:15:09;97047.66;;;29.64;63.61
22580;BME280;11456;47.030;15.396;2023-07-24T08:17:36;97045.00;;;29.49;64.73
22580;BME280;11456;47.030;15.396;2023-07-24T08:20:03;97052.56;;;30.11;64.91
22580;BME280;11456;47.030;15.396;2023-07-24T08:22:30;97073.53;;;30.80;58.17
22580;BME280;11456;47.030;15.396;2023-07-24T08:24:56;97065.34;;;30.12;61.17
22580;BME280;11456;47.030;15.396;2023-07-24T08:27:23;97067.72;;;30.24;60.65
22580;BME280;11456;47.030;15.396;2023-07-24T08:29:52;97061.63;;;30.98;58.84
22580;BME280;11456;47.030;15.396;2023-07-24T08:32:19;97055.88;;;30.71;57.12
22580;BME280;11456;47.030;15.396;2023-07-24T08:34:46;97060.63;;;30.13;58.06
22580;BME280;11456;47.030;15.396;2023-07-24T08:37:13;97061.16;;;30.44;58.27
22580;BME280;11456;47.030;15.396;2023-07-24T08:39:39;97055.31;;;30.16;59.19
22580;BME280;11456;47.030;15.396;2023-07-24T08:42:12;97066.88;;;29.89;59.83
22580;BME280;11456;47.030;15.396;2023-07-24T08:44:39;97071.34;;;29.96;57.77
22580;BME280;11456;47.030;15.396;2023-07-24T08:47:06;97070.53;;;30.48;57.79
22580;BME280;11456;47.030;15.396;2023-07-24T08:49:36;97065.78;;;31.01;55.51
22580;BME280;11456;47.030;15.396;2023-07-24T08:52:03;97056.47;;;31.16;55.31
22580;BME280;11456;47.030;15.396;2023-07-24T08:54:31;97045.94;;;30.65;56.19
22580;BME280;11456;47.030;15.396;2023-07-24T08:56:58;97041.63;;;30.25;58.54
22580;BME280;11456;47.030;15.396;2023-07-24T08:59:25;97035.88;;;30.69;57.53
22580;BME280;11456;47.030;15.396;2023-07-24T09:01:53;97037.63;;;30.60;57.52
22580;BME280;11456;47.030;15.396;2023-07-24T09:04:19;97038.84;;;30.78;58.92
22580;BME280;11456;47.030;15.396;2023-07-24T09:06:46;97032.31;;;30.87;56.80
22580;BME280;11456;47.030;15.396;2023-07-24T09:09:13;97034.81;;;30.65;58.18
22580;BME280;11456;47.030;15.396;2023-07-24T09:11:50;97017.50;;;31.16;56.07
22580;BME280;11456;47.030;15.396;2023-07-24T09:14:35;96994.50;;;31.29;55.94
22580;BME280;11456;47.030;15.396;2023-07-24T09:17:11;96989.13;;;31.70;52.52
22580;BME280;11456;47.030;15.396;2023-07-24T09:19:37;96992.84;;;32.30;52.60
22580;BME280;11456;47.030;15.396;2023-07-24T09:22:22;96993.78;;;30.99;52.70
22580;BME280;11456;47.030;15.396;2023-07-24T09:24:52;96992.19;;;31.17;53.46
22580;BME280;11456;47.030;15.396;2023-07-24T09:27:19;96988.69;;;31.63;53.97
22580;BME280;11456;47.030;15.396;2023-07-24T09:29:46;96988.06;;;32.17;51.27
22580;BME280;11456;47.030;15.396;2023-07-24T09:32:22;96988.34;;;32.89;48.71
22580;BME280;11456;47.030;15.396;2023-07-24T09:34:49;96982.38;;;31.38;51.23
22580;BME280;11456;47.030;15.396;2023-07-24T09:37:23;96985.03;;;31.30;53.69
22580;BME280;11456;47.030;15.396;2023-07-24T09:39:49;96972.31;;;31.94;48.75
22580;BME280;11456;47.030;15.396;2023-07-24T09:42:16;96966.41;;;31.81;48.90
22580;BME280;11456;47.030;15.396;2023-07-24T09:44:42;96954.94;;;31.32;51.27
22580;BME280;11456;47.030;15.396;2023-07-24T09:47:09;96971.38;;;29.96;57.45
22580;BME280;11456;47.030;15.396;2023-07-24T09:49:57;96968.00;;;30.27;54.68
22580;BME280;11456;47.030;15.396;2023-07-24T09:52:27;96950.47;;;30.03;54.05
22580;BME280;11456;47.030;15.396;2023-07-24T09:54:55;96953.94;;;29.17;58.83
22580;BME280;11456;47.030;15.396;2023-07-24T09:57:25;96950.19;;;28.98;58.75
22580;BME280;11456;47.030;15.396;2023-07-24T09:59:56;96934.25;;;29.14;56.71
22580;BME280;11456;47.030;15.396;2023-07-24T10:02:23;96953.94;;;29.17;56.03
22580;BME280;11456;47.030;15.396;2023-07-24T10:04:50;96955.06;;;29.16;59.56
22580;BME280;11456;47.030;15.396;2023-07-24T10:07:18;96949.91;;;29.38;60.60
22580;BME280;11456;47.030;15.396;2023-07-24T10:09:50;96956.53;;;29.76;59.06
22580;BME280;11456;47.030;15.396;2023-07-24T10:12:20;96954.16;;;30.70;57.19
22580;BME280;11456;47.030;15.396;2023-07-24T10:14:47;96944.81;;;30.61;57.15
22580;BME280;11456;47.030;15.396;2023-07-24T10:17:14;96933.13;;;31.39;52.44
22580;BME280;11456;47.030;15.396;2023-07-24T10:19:44;96935.59;;;31.59;51.86
22580;BME280;11456;47.030;15.396;2023-07-24T10:22:17;96938.19;;;31.69;52.62
22580;BME280;11456;47.030;15.396;2023-07-24T10:24:45;96927.44;;;31.12;54.09
22580;BME280;11456;47.030;15.396;2023-07-24T10:27:12;96926.00;;;30.05;57.98
22580;BME280;11456;47.030;15.396;2023-07-24T10:29:39;96907.28;;;31.20;55.55
22580;BME280;11456;47.030;15.396;2023-07-24T10:32:18;96912.84;;;31.20;57.39
22580;BME280;11456;47.030;15.396;2023-07-24T10:34:45;96915.38;;;32.00;55.07
22580;BME280;11456;47.030;15.396;2023-07-24T10:37:11;96910.38;;;31.69;57.51
22580;BME280;11456;47.030;15.396;2023-07-24T10:39:38;96907.53;;;32.02;56.67
22580;BME280;11456;47.030;15.396;2023-07-24T10:42:08;96890.66;;;31.33;56.17
22580;BME280;11456;47.030;15.396;2023-07-24T10:44:35;96895.63;;;31.18;56.26
22580;BME280;11456;47.030;15.396;2023-07-24T10:47:02;96887.69;;;31.11;57.90
22580;BME280;11456;47.030;15.396;2023-07-24T10:49:29;96894.69;;;31.09;59.49
22580;BME280;11456;47.030;15.396;2023-07-24T10:51:56;96893.53;;;31.28;55.73
22580;BME280;11456;47.030;15.396;2023-07-24T10:54:23;96891.13;;;30.84;55.53
22580;BME280;11456;47.030;15.396;2023-07-24T10:56:49;96897.19;;;30.01;58.34
22580;BME280;11456;47.030;15.396;2023-07-24T10:59:17;96890.09;;;30.14;59.85
22580;BME280;11456;47.030;15.396;2023-07-24T11:01:44;96873.38;;;29.90;61.17
22580;BME280;11456;47.030;15.396;2023-07-24T11:04:10;96860.38;;;29.62;62.25
22580;BME280;11456;47.030;15.396;2023-07-24T11:06:39;96851.13;;;29.08;64.64
22580;BME280;11456;47.030;15.396;2023-07-24T11:09:06;96820.84;;;29.17;65.30
22580;BME280;11456;47.030;15.396;2023-07-24T11:11:33;96843.19;;;28.97;67.13
22580;BME280;11456;47.030;15.396;2023-07-24T11:14:01;96857.50;;;29.09;67.36
22580;BME280;11456;47.030;15.396;2023-07-24T11:16:28;96850.13;;;29.28;66.94
22580;BME280;11456;47.030;15.396;2023-07-24T11:18:57;96834.97;;;29.49;67.03
22580;BME280;11456;47.030;15.396;2023-07-24T11:21:24;96885.00;;;29.39;66.45
22580;BME280;11456;47.030;15.396;2023-07-24T11:23:51;96889.56;;;29.25;70.09
22580;BME280;11456;47.030;15.396;2023-07-24T11:26:19;96876.88;;;29.48;68.89
22580;BME280;11456;47.030;15.396;2023-07-24T11:28:46;96865.38;;;30.12;67.29
22580;BME280;11456;47.030;15.396;2023-07-24T11:31:13;96869.53;;;30.15;63.05
22580;BME280;11456;47.030;15.396;2023-07-24T11:33:41;96867.13;;;30.51;61.41
22580;BME280;11456;47.030;15.396;2023-07-24T11:36:08;96857.22;;;31.20;59.73
22580;BME280;11456;47.030;15.396;2023-07-24T11:38:36;96861.13;;;31.19;59.00
22580;BME280;11456;47.030;15.396;2023-07-24T11:41:05;96860.88;;;31.34;60.32
22580;BME280;11456;47.030;15.396;2023-07-24T11:43:32;96857.19;;;31.84;56.26
22580;BME280;11456;47.030;15.396;2023-07-24T11:45:58;96841.72;;;31.92;58.10
22580;BME280;11456;47.030;15.396;2023-07-24T11:48:25;96839.28;;;32.18;55.75
22580;BME280;11456;47.030;15.396;2023-07-24T11:50:52;96837.38;;;33.26;53.88
22580;BME280;11456;47.030;15.396;2023-07-24T11:53:21;96832.59;;;32.69;54.23
22580;BME280;11456;47.030;15.396;2023-07-24T11:55:49;96829.25;;;32.17;52.89
22580;BME280;11456;47.030;15.396;2023-07-24T11:58:16;96825.84;;;32.20;55.07
22580;BME280;11456;47.030;15.396;2023-07-24T12:00:43;96827.91;;;32.28;55.89
22580;BME280;11456;47.030;15.396;2023-07-24T12:03:11;96807.81;;;32.53;55.34
22580;BME280;11456;47.030;15.396;2023-07-24T12:05:40;96796.69;;;32.53;54.05
22580;BME280;11456;47.030;15.396;2023-07-24T12:08:08;96784.56;;;32.72;52.88
22580;BME280;11456;47.030;15.396;2023-07-24T12:10:37;96773.59;;;32.97;53.11
22580;BME280;11456;47.030;15.396;2023-07-24T12:13:06;96756.91;;;32.12;54.36
22580;BME280;11456;47.030;15.396;2023-07-24T12:15:33;96757.34;;;31.78;53.70
22580;BME280;11456;47.030;15.396;2023-07-24T12:18:02;96757.13;;;32.02;54.23
22580;BME280;11456;47.030;15.396;2023-07-24T12:20:30;96762.41;;;31.62;55.08
22580;BME280;11456;47.030;15.396;2023-07-24T12:22:57;96774.19;;;31.27;53.38
22580;BME280;11456;47.030;15.396;2023-07-24T12:25:24;96768.03;;;31.30;54.00
22580;BME280;11456;47.030;15.396;2023-07-24T12:27:51;96777.19;;;30.98;54.36
22580;BME280;11456;47.030;15.396;2023-07-24T12:30:17;96776.09;;;31.13;56.08
22580;BME280;11456;47.030;15.396;2023-07-24T12:32:44;96767.66;;;30.85;57.77
22580;BME280;11456;47.030;15.396;2023-07-24T12:35:11;96767.84;;;31.08;57.05
22580;BME280;11456;47.030;15.396;2023-07-24T12:37:42;96760.59;;;30.74;56.87
22580;BME280;11456;47.030;15.396;2023-07-24T12:40:09;96742.25;;;31.38;55.54
22580;BME280;11456;47.030;15.396;2023-07-24T12:42:36;96726.25;;;31.62;50.70
22580;BME280;11456;47.030;15.396;2023-07-24T12:45:02;96702.91;;;31.85;49.57
22580;BME280;11456;47.030;15.396;2023-07-24T12:47:30;96694.84;;;31.57;47.48
22580;BME280;11456;47.030;15.396;2023-07-24T12:49:57;96714.66;;;31.55;43.48